Meridian — EI6085 — position and weather

sailwx.info

Track history (hours):
 
Tides and Currents Weather Stations Pressure Air Temp Water Temp Dewpoint Dewpoint Depression Visibility Wind Speed Wind Dir Waves Ship Positions

Meridian

Last reported at 2015-Jul-07 15:33 UTC. Time now 2015-Jul-08 00:09 UTC.
Position N 54°38' W 008°27'.

Length 12 m.

Type: Fishing. MMSI: 250107450.

Date/timePositionNaut miles runAvg speedWind from/ knotsBaromVisibWave heightAir tempDewpointWater temp
2015-Jul-07 15:33N 54°38' W 008°27'0 0.3
2015-Jul-07 14:33N 54°38' W 008°26'0 0.3
2015-Jul-07 13:33N 54°38' W 008°27'2 1.5
2015-Jul-07 12:33N 54°37' W 008°26'0 0.4
2015-Jul-07 11:33N 54°36' W 008°27'1 0.6
2015-Jul-07 10:33N 54°37' W 008°27'2 1.5
2015-Jul-07 09:33N 54°39' W 008°26'1 0.6
2015-Jul-07 08:31N 54°38' W 008°27'0 0.0
2015-Jul-05 16:33N 54°38' W 008°27'5 4.9
2015-Jul-05 15:33N 54°34' W 008°31'8 8.0
2015-Jul-05 14:33N 54°28' W 008°40'1 1.2
2015-Jul-05 13:33N 54°28' W 008°42'0 0.1
2015-Jul-05 12:33N 54°28' W 008°43'0 0.5
2015-Jul-05 11:33N 54°28' W 008°42'3 2.6
2015-Jul-05 10:34N 54°29' W 008°38'6 6.2
2015-Jul-05 09:33N 54°34' W 008°31'2 2.5
2015-Jul-05 08:33N 54°36' W 008°28'2 2.4
2015-Jul-05 07:32N 54°38' W 008°27'0 0.0
2015-Jul-04 09:33N 54°38' W 008°27'0 0.0
2015-Jul-03 16:21N 54°38' W 008°27'0 0.3
2015-Jul-03 15:33N 54°38' W 008°27'7 6.6
2015-Jul-03 14:33N 54°36' W 008°37'2 2.5
2015-Jul-03 13:33N 54°37' W 008°41'0 0.1
2015-Jul-03 12:07N 54°37' W 008°42'3 5.4
2015-Jul-03 11:33N 54°37' W 008°36'1 1.4
2015-Jul-03 10:33N 54°36' W 008°34'4 3.5
2015-Jul-03 09:33N 54°36' W 008°28'2 2.1
2015-Jul-03 08:32N 54°38' W 008°27'  
2015-Jun-30 14:33N 54°38' W 008°27'2 2.4
2015-Jun-30 13:31N 54°36' W 008°27'1 0.9
2015-Jun-30 12:34N 54°35' W 008°28'1 0.6
2015-Jun-30 11:33N 54°35' W 008°28'1 1.0
2015-Jun-30 10:33N 54°35' W 008°27'0 0.2
2015-Jun-30 09:34N 54°36' W 008°27'2 2.2
2015-Jun-30 08:31N 54°38' W 008°27'1 0.1
2015-Jun-29 19:33N 54°37' W 008°27'2 1.8
2015-Jun-29 18:32N 54°35' W 008°27'2 1.7
2015-Jun-29 17:33N 54°36' W 008°29'2 2.4
2015-Jun-29 16:32N 54°38' W 008°27'4 3.7
2015-Jun-29 15:33N 54°35' W 008°29'8 8.5
2015-Jun-29 14:33N 54°29' W 008°39'2 2.0
2015-Jun-29 13:33N 54°28' W 008°42'0 0.4
2015-Jun-29 12:33N 54°28' W 008°42'1 1.2
2015-Jun-29 11:33N 54°28' W 008°40'1 1.3
2015-Jun-29 10:33N 54°29' W 008°38'8 8.1
2015-Jun-29 09:33N 54°35' W 008°29'3 3.4
2015-Jun-29 08:33N 54°38' W 008°26'  
Track history (hours):
 
Tides and Currents Weather Stations Pressure Air Temp Water Temp Dewpoint Dewpoint Depression Visibility Wind Speed Wind Dir Waves Ship Positions

Meridian

Last reported at 2015-Jul-07 15:33 UTC. Time now 2015-Jul-08 00:09 UTC.
Position N 54°38' W 008°27'.

Length 12 m.

Type: Fishing. MMSI: 250107450.

Date/timePositionNaut miles runAvg speedWind from/ knotsBaromVisibWave heightAir tempDewpointWater temp
2015-Jul-07 15:33N 54°38' W 008°27'0 0.3
2015-Jul-07 14:33N 54°38' W 008°26'0 0.3
2015-Jul-07 13:33N 54°38' W 008°27'2 1.5
2015-Jul-07 12:33N 54°37' W 008°26'0 0.4
2015-Jul-07 11:33N 54°36' W 008°27'1 0.6
2015-Jul-07 10:33N 54°37' W 008°27'2 1.5
2015-Jul-07 09:33N 54°39' W 008°26'1 0.6
2015-Jul-07 08:31N 54°38' W 008°27'0 0.0
2015-Jul-05 16:33N 54°38' W 008°27'5 4.9
2015-Jul-05 15:33N 54°34' W 008°31'8 8.0
2015-Jul-05 14:33N 54°28' W 008°40'1 1.2
2015-Jul-05 13:33N 54°28' W 008°42'0 0.1
2015-Jul-05 12:33N 54°28' W 008°43'0 0.5
2015-Jul-05 11:33N 54°28' W 008°42'3 2.6
2015-Jul-05 10:34N 54°29' W 008°38'6 6.2
2015-Jul-05 09:33N 54°34' W 008°31'2 2.5
2015-Jul-05 08:33N 54°36' W 008°28'2 2.4
2015-Jul-05 07:32N 54°38' W 008°27'0 0.0
2015-Jul-04 09:33N 54°38' W 008°27'0 0.0
2015-Jul-03 16:21N 54°38' W 008°27'0 0.3
2015-Jul-03 15:33N 54°38' W 008°27'7 6.6
2015-Jul-03 14:33N 54°36' W 008°37'2 2.5
2015-Jul-03 13:33N 54°37' W 008°41'0 0.1
2015-Jul-03 12:07N 54°37' W 008°42'3 5.4
2015-Jul-03 11:33N 54°37' W 008°36'1 1.4
2015-Jul-03 10:33N 54°36' W 008°34'4 3.5
2015-Jul-03 09:33N 54°36' W 008°28'2 2.1
2015-Jul-03 08:32N 54°38' W 008°27'  
2015-Jun-30 14:33N 54°38' W 008°27'2 2.4
2015-Jun-30 13:31N 54°36' W 008°27'1 0.9
2015-Jun-30 12:34N 54°35' W 008°28'1 0.6
2015-Jun-30 11:33N 54°35' W 008°28'1 1.0
2015-Jun-30 10:33N 54°35' W 008°27'0 0.2
2015-Jun-30 09:34N 54°36' W 008°27'2 2.2
2015-Jun-30 08:31N 54°38' W 008°27'1 0.1
2015-Jun-29 19:33N 54°37' W 008°27'2 1.8
2015-Jun-29 18:32N 54°35' W 008°27'2 1.7
2015-Jun-29 17:33N 54°36' W 008°29'2 2.4
2015-Jun-29 16:32N 54°38' W 008°27'4 3.7
2015-Jun-29 15:33N 54°35' W 008°29'8 8.5
2015-Jun-29 14:33N 54°29' W 008°39'2 2.0
2015-Jun-29 13:33N 54°28' W 008°42'0 0.4
2015-Jun-29 12:33N 54°28' W 008°42'1 1.2
2015-Jun-29 11:33N 54°28' W 008°40'1 1.3
2015-Jun-29 10:33N 54°29' W 008°38'8 8.1
2015-Jun-29 09:33N 54°35' W 008°29'3 3.4
2015-Jun-29 08:33N 54°38' W 008°26'  

Dump ship's entire track history